Time;durP1;ratioP1;P1;durP2;ratioP2;P2;SDS_P1;SDS_P2;PMS_P1;PMS_P2;Temp;Humidity;BMP_temperature;BMP_pressure;BME280_temperature;BME280_humidity;BME280_pressure;Samples;Min_cycle;Max_cycle;Signal;HPM_P1;HPM_P2
2021/12/22 05:01:53;;;;;;;22.40;10.48;;;-2.90;99.90;;;;;;5295278;23;20586;-68
2021/12/22 05:04:19;;;;;;;27.63;12.02;;;-2.90;99.90;;;;;;4944340;28;20264;-70
2021/12/22 05:06:47;;;;;;;26.25;12.50;;;-2.90;99.90;;;;;;4942932;29;20232;-68
2021/12/22 05:09:13;;;;;;;20.55;10.65;;;-2.90;99.90;;;;;;4948437;28;20566;-70
2021/12/22 05:11:40;;;;;;;24.92;12.45;;;-2.90;99.90;;;;;;4944736;29;20236;-69
2021/12/22 05:14:08;;;;;;;17.60;10.00;;;-2.90;99.90;;;;;;4951755;29;20209;-69
2021/12/22 05:16:44;;;;;;;25.00;10.35;;;-2.90;99.90;;;;;;4952011;29;20225;-68
2021/12/22 05:19:14;;;;;;;15.05;7.97;;;-2.80;99.90;;;;;;4943646;29;20222;-68
2021/12/22 05:21:42;;;;;;;20.27;10.23;;;-2.90;99.90;;;;;;4937031;28;20234;-68
2021/12/22 05:24:09;;;;;;;21.40;11.60;;;-2.80;99.90;;;;;;4943545;28;20205;-68
2021/12/22 05:26:37;;;;;;;28.23;11.98;;;-2.80;99.90;;;;;;4955434;28;20672;-68
2021/12/22 05:29:04;;;;;;;26.73;12.30;;;-2.80;99.90;;;;;;4948088;28;20217;-69
2021/12/22 05:31:31;;;;;;;23.50;11.73;;;-2.80;99.90;;;;;;4955994;29;20229;-69
2021/12/22 05:33:58;;;;;;;32.65;12.27;;;-2.80;99.90;;;;;;4956125;29;20201;-69
2021/12/22 05:36:26;;;;;;;22.65;10.20;;;-2.70;99.90;;;;;;4957316;28;20272;-70
2021/12/22 05:38:52;;;;;;;25.70;13.57;;;-2.70;99.90;;;;;;4956206;28;20209;-71
2021/12/22 05:41:19;;;;;;;20.75;10.98;;;-2.70;99.90;;;;;;4956248;28;20229;-71
2021/12/22 05:43:46;;;;;;;24.90;10.60;;;-2.70;99.90;;;;;;4955420;28;20205;-71
2021/12/22 05:46:13;;;;;;;21.30;10.32;;;-2.70;99.90;;;;;;4953992;28;20205;-71
2021/12/22 05:48:39;;;;;;;33.78;13.27;;;-2.70;99.90;;;;;;4952068;29;20275;-71
2021/12/22 05:51:07;;;;;;;24.50;11.07;;;-2.70;99.90;;;;;;4955756;28;20324;-71
2021/12/22 05:53:35;;;;;;;24.27;12.02;;;-2.70;99.90;;;;;;4956047;28;20220;-71
2021/12/22 05:56:01;;;;;;;17.58;10.32;;;-2.70;99.90;;;;;;4948930;29;20210;-70
2021/12/22 05:58:28;;;;;;;17.60;9.80;;;-2.60;99.90;;;;;;4953930;29;20212;-71
2021/12/22 06:00:55;;;;;;;24.95;11.60;;;-2.70;99.90;;;;;;4955210;29;20248;-71
2021/12/22 06:03:22;;;;;;;21.23;12.75;;;-2.70;99.90;;;;;;4947847;28;20213;-71
2021/12/22 06:05:49;;;;;;;24.88;10.85;;;-2.60;99.90;;;;;;4949728;28;20348;-69
2021/12/22 06:08:15;;;;;;;16.10;8.30;;;-2.60;99.90;;;;;;4943833;29;20210;-71
2021/12/22 06:10:43;;;;;;;19.33;9.15;;;-2.60;99.90;;;;;;4942046;29;20312;-70
2021/12/22 06:13:11;;;;;;;18.05;9.43;;;-2.60;99.90;;;;;;4947675;29;20261;-71
2021/12/22 06:15:39;;;;;;;21.98;10.88;;;-2.60;99.90;;;;;;4947126;29;20217;-70
2021/12/22 06:18:06;;;;;;;17.67;9.60;;;-2.70;99.90;;;;;;4947645;29;20261;-71
2021/12/22 06:20:34;;;;;;;17.17;8.05;;;-2.60;99.90;;;;;;4944568;29;20718;-69
2021/12/22 06:23:02;;;;;;;18.08;9.88;;;-2.60;99.90;;;;;;4954740;29;20213;-70
2021/12/22 06:25:29;;;;;;;26.30;12.20;;;-2.50;99.90;;;;;;4958045;29;20213;-70
2021/12/22 06:27:57;;;;;;;160.02;54.63;;;-2.50;99.90;;;;;;4955043;29;20201;-69
2021/12/22 06:30:24;;;;;;;60.70;28.63;;;-2.50;99.90;;;;;;4954899;28;20736;-70
2021/12/22 06:32:52;;;;;;;169.70;63.63;;;-2.60;99.90;;;;;;4948821;29;20556;-69
2021/12/22 06:35:18;;;;;;;242.88;90.68;;;-2.60;99.90;;;;;;4956738;29;20212;-69
2021/12/22 06:37:46;;;;;;;61.22;26.65;;;-2.60;99.90;;;;;;4956456;28;20709;-69
2021/12/22 06:40:15;;;;;;;76.95;34.08;;;-2.60;99.90;;;;;;4954655;28;20273;-68
2021/12/22 06:42:42;;;;;;;83.38;28.98;;;-2.60;99.90;;;;;;4954579;28;20353;-68
2021/12/22 06:45:12;;;;;;;74.28;34.55;;;-2.50;99.90;;;;;;4950128;28;20213;-69
2021/12/22 06:47:40;;;;;;;36.92;17.90;;;-2.50;99.90;;;;;;4948273;29;20225;-71
2021/12/22 06:50:08;;;;;;;41.22;20.52;;;-2.50;99.90;;;;;;4946814;29;20212;-69
2021/12/22 06:52:35;;;;;;;24.58;13.25;;;-2.50;99.90;;;;;;4953231;28;20296;-69
2021/12/22 06:55:02;;;;;;;35.50;18.77;;;-2.50;99.90;;;;;;4954036;29;20209;-68
2021/12/22 06:57:31;;;;;;;23.42;11.85;;;-2.50;99.90;;;;;;4948220;29;20241;-68
2021/12/22 06:59:58;;;;;;;27.02;16.80;;;-2.40;99.90;;;;;;4946346;29;20685;-69
2021/12/22 07:02:26;;;;;;;23.70;10.48;;;-2.40;99.90;;;;;;4953860;29;20655;-69
2021/12/22 07:04:53;;;;;;;19.25;8.95;;;-2.40;99.90;;;;;;4942333;29;20537;-70
2021/12/22 07:07:20;;;;;;;28.38;11.50;;;-2.30;99.90;;;;;;4954583;28;20662;-70
2021/12/22 07:09:47;;;;;;;26.33;10.18;;;-2.30;99.90;;;;;;4954775;29;20275;-70
2021/12/22 07:12:13;;;;;;;14.88;9.25;;;-2.30;99.90;;;;;;4954903;29;20236;-70
2021/12/22 07:14:40;;;;;;;19.00;10.40;;;-2.30;99.90;;;;;;4953933;29;20214;-70
2021/12/22 07:17:07;;;;;;;19.70;9.98;;;-2.30;99.90;;;;;;4954756;29;20284;-69
2021/12/22 07:19:35;;;;;;;18.83;9.85;;;-2.40;99.90;;;;;;4954504;29;20577;-70
2021/12/22 07:22:01;;;;;;;20.25;10.13;;;-2.30;99.90;;;;;;4953917;29;20248;-69
2021/12/22 07:24:28;;;;;;;25.45;11.15;;;-2.30;99.90;;;;;;4954445;29;20213;-69
2021/12/22 07:26:55;;;;;;;28.90;15.70;;;-2.30;99.90;;;;;;4953182;29;20205;-68
2021/12/22 07:29:21;;;;;;;24.17;10.98;;;-2.30;99.90;;;;;;4953040;29;20276;-70
2021/12/22 07:31:48;;;;;;;16.33;9.30;;;-2.30;99.90;;;;;;4953653;29;20233;-70
2021/12/22 07:34:20;;;;;;;21.23;11.80;;;-2.30;99.90;;;;;;4953962;29;20233;-69
2021/12/22 07:37:06;;;;;;;22.38;9.90;;;-2.40;99.90;;;;;;4954278;29;20244;-69
2021/12/22 07:39:33;;;;;;;41.75;20.95;;;-2.40;99.90;;;;;;4946262;29;20213;-69
2021/12/22 07:41:59;;;;;;;39.85;22.88;;;-2.30;99.90;;;;;;4953946;29;20225;-70
2021/12/22 07:44:26;;;;;;;26.42;13.77;;;-2.20;99.90;;;;;;4953136;29;20225;-69
2021/12/22 07:46:53;;;;;;;31.20;16.20;;;-1.90;99.90;;;;;;4953055;29;20272;-68
2021/12/22 07:49:20;;;;;;;29.85;16.25;;;-2.00;99.90;;;;;;4950370;28;20209;-68
2021/12/22 07:51:46;;;;;;;25.58;10.73;;;-2.00;99.90;;;;;;4942129;28;20713;-70
2021/12/22 07:54:14;;;;;;;25.52;13.15;;;-2.00;99.90;;;;;;4950580;29;20567;-69
2021/12/22 07:56:41;;;;;;;24.63;11.63;;;-2.10;99.90;;;;;;4951813;29;20265;-69
2021/12/22 07:59:08;;;;;;;23.70;10.98;;;-2.10;99.90;;;;;;4952371;29;20260;-69
2021/12/22 08:01:34;;;;;;;26.13;13.68;;;-2.10;99.90;;;;;;4949092;29;20228;-70
2021/12/22 08:04:01;;;;;;;19.27;11.05;;;-2.10;99.90;;;;;;4946847;29;20198;-70
2021/12/22 08:06:28;;;;;;;20.70;9.60;;;-2.10;99.90;;;;;;4952953;29;20208;-69
2021/12/22 08:08:55;;;;;;;19.20;11.55;;;-2.10;99.90;;;;;;4945765;29;20233;-70
2021/12/22 08:11:23;;;;;;;24.85;11.07;;;-2.10;99.90;;;;;;4952821;28;20229;-69
2021/12/22 08:13:49;;;;;;;25.20;11.40;;;-2.10;99.90;;;;;;4952752;29;20208;-69
2021/12/22 08:16:16;;;;;;;20.02;10.98;;;-2.10;99.90;;;;;;4946789;28;20205;-69
2021/12/22 08:18:43;;;;;;;25.23;10.68;;;-2.10;99.90;;;;;;4942767;29;20328;-69
2021/12/22 08:21:09;;;;;;;25.75;13.65;;;-2.00;99.90;;;;;;4952894;29;20710;-70
2021/12/22 08:23:36;;;;;;;21.25;11.38;;;-2.00;99.90;;;;;;4942284;29;20576;-68
2021/12/22 08:26:03;;;;;;;30.70;14.95;;;-2.00;99.90;;;;;;4943913;29;20205;-70
2021/12/22 08:28:31;;;;;;;20.17;12.13;;;-1.90;99.90;;;;;;4935633;29;20269;-68
2021/12/22 08:30:58;;;;;;;24.25;12.48;;;-1.90;99.90;;;;;;4943344;29;20237;-68
2021/12/22 08:33:29;;;;;;;19.75;10.80;;;-1.90;99.90;;;;;;4943957;29;20248;-68
2021/12/22 08:38:54;;;;;;;19.70;12.10;;;-2.00;99.90;;;;;;4944802;29;20721;-67
2021/12/22 08:41:23;;;;;;;20.67;12.30;;;-2.00;99.90;;;;;;4950724;28;20718;-68
2021/12/22 08:43:54;;;;;;;24.65;12.02;;;-2.00;99.90;;;;;;4951177;29;20204;-69
2021/12/22 08:46:21;;;;;;;18.80;11.27;;;-2.00;99.90;;;;;;4952772;28;20217;-68
2021/12/22 08:48:48;;;;;;;18.90;10.88;;;-2.00;99.90;;;;;;4941315;29;20202;-67
2021/12/22 08:51:15;;;;;;;21.50;10.55;;;-2.00;99.90;;;;;;4947004;29;20284;-69
2021/12/22 08:53:42;;;;;;;22.15;9.50;;;-1.90;99.90;;;;;;4947039;28;20633;-70
2021/12/22 08:56:09;;;;;;;21.17;11.60;;;-1.80;99.90;;;;;;4938263;29;20210;-69
2021/12/22 08:58:35;;;;;;;27.05;13.50;;;-1.60;99.90;;;;;;4951707;28;20272;-68
2021/12/22 09:01:04;;;;;;;25.30;13.10;;;-1.60;99.90;;;;;;4952198;29;20586;-68
2021/12/22 09:03:32;;;;;;;22.75;11.60;;;-1.80;99.90;;;;;;4953152;29;20220;-68
2021/12/22 09:05:59;;;;;;;19.20;11.70;;;-1.80;99.90;;;;;;4952794;29;20283;-67
2021/12/22 09:08:26;;;;;;;28.30;12.20;;;-1.90;99.90;;;;;;4952582;29;20295;-68
2021/12/22 09:10:53;;;;;;;19.15;11.15;;;-1.90;99.90;;;;;;4952668;29;20291;-68
2021/12/22 09:13:20;;;;;;;30.73;15.25;;;-1.90;99.90;;;;;;4952427;29;20209;-67
2021/12/22 09:15:47;;;;;;;36.17;16.80;;;-1.90;99.90;;;;;;4952583;29;20217;-68
2021/12/22 09:18:15;;;;;;;35.08;15.30;;;-1.90;99.90;;;;;;4952908;29;20597;-69
2021/12/22 09:20:42;;;;;;;49.13;24.52;;;-1.80;99.90;;;;;;4952344;29;20236;-68
2021/12/22 09:23:09;;;;;;;43.60;19.33;;;-1.80;99.90;;;;;;4953004;29;20209;-71
2021/12/22 09:25:36;;;;;;;27.25;13.45;;;-1.80;99.90;;;;;;4952855;29;20264;-70
2021/12/22 09:28:03;;;;;;;25.50;12.10;;;-1.80;99.90;;;;;;4952328;29;20271;-70
2021/12/22 09:30:35;;;;;;;32.90;16.33;;;-1.80;99.90;;;;;;4951664;29;20641;-71
2021/12/22 09:33:03;;;;;;;30.15;14.32;;;-1.70;99.90;;;;;;4952708;29;20306;-69
2021/12/22 09:35:31;;;;;;;24.67;14.52;;;-1.60;99.90;;;;;;4952499;29;20213;-69
2021/12/22 09:37:58;;;;;;;21.20;11.63;;;-1.60;99.90;;;;;;4945244;29;20226;-68
2021/12/22 09:40:25;;;;;;;24.55;15.25;;;-1.60;99.90;;;;;;4933313;29;20674;-70
2021/12/22 09:42:52;;;;;;;26.65;15.07;;;-1.60;99.90;;;;;;4933185;29;20257;-70
2021/12/22 09:45:20;;;;;;;27.85;14.85;;;-1.60;99.90;;;;;;4932984;29;20674;-68
2021/12/22 09:48:04;;;;;;;43.95;20.45;;;-1.50;99.90;;;;;;4933274;29;20339;-69
2021/12/22 09:50:46;;;;;;;21.67;12.65;;;-1.50;99.90;;;;;;4933191;29;20217;-68
2021/12/22 09:53:13;;;;;;;37.03;16.98;;;-1.50;99.90;;;;;;4933589;29;20205;-69
2021/12/22 09:55:40;;;;;;;64.18;28.00;;;-1.40;99.90;;;;;;4938294;29;20202;-70
2021/12/22 09:58:09;;;;;;;23.77;10.82;;;-1.30;99.90;;;;;;4943724;28;20237;-68
2021/12/22 10:00:38;;;;;;;23.02;14.43;;;-1.30;99.90;;;;;;4951605;29;21000;-70
2021/12/22 10:03:07;;;;;;;21.40;10.52;;;-1.30;99.90;;;;;;4952584;29;20209;-70
2021/12/22 10:05:36;;;;;;;22.88;14.18;;;-1.30;99.90;;;;;;4952538;29;20588;-72
2021/12/22 10:08:07;;;;;;;26.25;13.25;;;-1.30;99.90;;;;;;4952305;29;20268;-71
2021/12/22 10:10:34;;;;;;;25.42;12.60;;;-1.20;99.90;;;;;;4951964;28;20252;-70
2021/12/22 10:13:06;;;;;;;20.65;11.88;;;-1.20;99.90;;;;;;4955179;29;20688;-69
2021/12/22 10:15:35;;;;;;;25.25;12.35;;;-1.10;99.90;;;;;;4955545;29;20301;-72
2021/12/22 10:18:08;;;;;;;33.80;18.70;;;-1.00;99.90;;;;;;4955723;29;20229;-71
2021/12/22 10:20:37;;;;;;;25.77;14.20;;;-1.00;99.90;;;;;;4955450;28;20257;-71
2021/12/22 10:23:19;;;;;;;23.30;12.98;;;-0.90;99.90;;;;;;4955546;29;20217;-71
2021/12/22 10:25:51;;;;;;;27.17;14.70;;;-0.90;99.90;;;;;;4955704;28;20264;-68
2021/12/22 10:28:19;;;;;;;21.98;13.35;;;-0.90;99.90;;;;;;4941709;29;20205;-71
2021/12/22 10:30:47;;;;;;;24.20;13.88;;;-0.80;99.90;;;;;;4935343;29;20236;-71
2021/12/22 10:33:16;;;;;;;20.00;13.50;;;-0.80;99.90;;;;;;4936546;29;20209;-70
2021/12/22 10:35:46;;;;;;;19.45;12.05;;;-0.80;99.90;;;;;;4936256;29;20300;-70
2021/12/22 10:38:16;;;;;;;23.70;15.50;;;-0.80;99.90;;;;;;4936117;29;20855;-71
2021/12/22 10:40:45;;;;;;;17.10;11.32;;;-0.90;99.90;;;;;;4936335;29;20236;-71
2021/12/22 10:43:17;;;;;;;27.05;15.68;;;-0.80;99.90;;;;;;4935734;29;20214;-70
2021/12/22 10:45:47;;;;;;;24.92;13.23;;;-0.80;99.90;;;;;;4935779;29;20575;-71
2021/12/22 10:51:08;;;;;;;20.27;11.68;;;-0.70;99.90;;;;;;4935868;29;20708;-71
2021/12/22 10:53:42;;;;;;;27.15;16.67;;;-0.80;99.90;;;;;;4936128;29;20225;-70
2021/12/22 10:56:08;;;;;;;19.85;10.13;;;-0.80;99.90;;;;;;4944210;29;20208;-70
2021/12/22 10:58:35;;;;;;;19.08;12.68;;;-0.80;99.90;;;;;;4940265;29;20281;-72
2021/12/22 11:01:07;;;;;;;23.67;15.73;;;-0.90;99.90;;;;;;4945998;28;20304;-71
2021/12/22 11:03:42;;;;;;;22.95;11.07;;;-0.80;99.90;;;;;;4947025;29;20208;-69
2021/12/22 11:06:17;;;;;;;27.92;15.70;;;-0.80;99.90;;;;;;4954890;29;20622;-70
2021/12/22 11:08:53;;;;;;;27.35;14.88;;;-0.80;99.90;;;;;;4954707;29;20209;-71
2021/12/22 11:11:20;;;;;;;20.75;12.95;;;-0.80;99.90;;;;;;4954132;29;20284;-68
2021/12/22 11:14:11;;;;;;;26.73;13.85;;;-0.70;99.90;;;;;;4954790;29;20631;-70
2021/12/22 11:16:53;;;;;;;19.50;9.57;;;-0.40;99.90;;;;;;4954415;29;20259;-68
2021/12/22 11:19:20;;;;;;;27.55;12.88;;;-0.50;99.90;;;;;;4935601;29;20233;-69
2021/12/22 11:22:01;;;;;;;30.30;15.70;;;-0.50;99.90;;;;;;4952579;28;20651;-70
2021/12/22 11:24:31;;;;;;;26.67;11.13;;;-0.50;99.90;;;;;;4954050;29;20694;-70
2021/12/22 11:26:59;;;;;;;20.85;12.23;;;-0.60;99.90;;;;;;4954255;29;20226;-71
2021/12/22 11:29:26;;;;;;;19.92;11.18;;;-0.50;99.90;;;;;;4942363;29;20933;-70
2021/12/22 11:31:54;;;;;;;25.25;12.93;;;-0.40;99.90;;;;;;4946026;28;20315;-71
2021/12/22 11:34:22;;;;;;;27.55;16.35;;;-0.40;99.90;;;;;;4941967;29;20209;-70
2021/12/22 11:36:51;;;;;;;24.83;13.85;;;-0.30;99.90;;;;;;4973832;23;20667;-69
2021/12/22 11:39:20;;;;;;;21.65;12.20;;;-0.30;99.90;;;;;;4996421;28;20250;-69
2021/12/22 11:41:57;;;;;;;26.20;12.52;;;-0.20;99.90;;;;;;4992930;28;20290;-70
2021/12/22 11:44:25;;;;;;;37.83;20.45;;;-0.20;99.90;;;;;;5002089;28;20221;-69
2021/12/22 11:46:54;;;;;;;22.30;12.65;;;-0.20;99.90;;;;;;4995129;28;20584;-69
2021/12/22 11:49:21;;;;;;;37.40;18.73;;;-0.10;99.90;;;;;;5003357;28;20204;-69
2021/12/22 11:51:48;;;;;;;19.45;11.90;;;-0.10;99.90;;;;;;5000161;28;20203;-69
2021/12/22 11:54:24;;;;;;;20.67;12.55;;;0.00;99.90;;;;;;4996514;28;20208;-68
2021/12/22 11:56:52;;;;;;;36.75;22.42;;;-0.10;99.90;;;;;;4991658;28;20234;-69
2021/12/22 11:59:40;;;;;;;24.67;14.57;;;-0.10;99.90;;;;;;4973792;28;20223;-69
2021/12/22 12:02:32;;;;;;;32.65;18.50;;;-0.10;99.90;;;;;;4975629;28;20207;-68
2021/12/22 12:05:14;;;;;;;20.90;11.70;;;0.00;99.90;;;;;;4976835;28;20219;-68
2021/12/22 12:07:43;;;;;;;27.00;14.65;;;0.00;99.90;;;;;;4979919;28;20355;-68
2021/12/22 12:10:34;;;;;;;24.55;12.43;;;0.10;99.90;;;;;;4993111;28;20230;-70
2021/12/22 12:13:06;;;;;;;27.60;14.20;;;0.10;99.90;;;;;;4980816;28;20213;-67
2021/12/22 12:22:10;;;;;;;22.65;12.40;;;0.10;99.90;;;;;;4992870;28;20266;-69
2021/12/22 12:24:40;;;;;;;19.95;11.45;;;0.10;99.90;;;;;;4982794;28;20211;-68
2021/12/22 12:27:34;;;;;;;20.02;12.45;;;0.10;99.90;;;;;;4978816;28;20588;-69
2021/12/22 12:30:03;;;;;;;21.98;11.13;;;0.10;99.90;;;;;;4980741;28;20200;-68
2021/12/22 12:32:56;;;;;;;21.55;12.30;;;0.20;99.90;;;;;;4992712;28;20216;-68
2021/12/22 12:35:26;;;;;;;13.98;9.45;;;0.20;99.90;;;;;;4992096;28;20218;-68
2021/12/22 12:38:03;;;;;;;16.15;10.02;;;0.20;99.90;;;;;;4992543;28;20326;-67
2021/12/22 12:41:21;;;;;;;12.68;9.13;;;0.10;99.90;;;;;;4991223;28;20204;-69
2021/12/22 12:44:05;;;;;;;17.85;9.75;;;0.10;99.90;;;;;;4986172;28;20524;-68
2021/12/22 12:46:47;;;;;;;15.13;8.50;;;0.10;99.90;;;;;;4989989;28;20282;-68
2021/12/22 12:49:34;;;;;;;19.63;10.35;;;0.10;99.90;;;;;;4992436;28;20216;-68
2021/12/22 12:52:07;;;;;;;13.70;8.77;;;0.20;99.90;;;;;;4992285;28;20302;-68
2021/12/22 12:54:40;;;;;;;18.10;10.25;;;0.10;99.90;;;;;;4992671;28;20534;-69
2021/12/22 12:57:33;;;;;;;19.02;10.50;;;0.20;99.90;;;;;;4990329;28;20282;-70
2021/12/22 13:00:06;;;;;;;12.73;8.55;;;0.10;99.90;;;;;;4941153;28;20604;-69
2021/12/22 13:02:35;;;;;;;15.50;9.80;;;0.10;99.90;;;;;;4972820;28;20693;-69
2021/12/22 13:05:06;;;;;;;15.07;9.50;;;0.00;99.90;;;;;;4984323;28;20545;-69
2021/12/22 13:07:34;;;;;;;14.40;9.27;;;0.10;99.90;;;;;;4972468;28;20228;-69
2021/12/22 13:10:03;;;;;;;17.15;9.73;;;0.10;99.90;;;;;;4983292;28;20230;-69
2021/12/22 13:12:47;;;;;;;14.90;9.15;;;0.10;99.90;;;;;;4989580;28;20691;-69
2021/12/22 13:18:05;;;;;;;36.22;21.48;;;0.20;99.90;;;;;;4986782;28;20383;-68
2021/12/22 13:20:35;;;;;;;28.52;17.13;;;0.20;99.90;;;;;;4972243;28;20229;-68
2021/12/22 13:23:04;;;;;;;23.48;14.77;;;0.20;99.90;;;;;;4972795;28;20204;-68
2021/12/22 13:25:33;;;;;;;19.35;13.18;;;0.10;99.90;;;;;;4983363;28;20216;-68
2021/12/22 13:28:04;;;;;;;15.57;9.88;;;0.00;99.90;;;;;;4990291;28;20317;-68
2021/12/22 13:30:34;;;;;;;21.42;13.80;;;0.00;99.90;;;;;;4985236;28;20203;-68
2021/12/22 13:33:04;;;;;;;25.10;17.30;;;0.00;99.90;;;;;;4991525;28;20282;-68
2021/12/22 13:35:34;;;;;;;16.58;10.95;;;0.00;99.90;;;;;;4989853;28;20203;-69
2021/12/22 13:38:03;;;;;;;19.58;11.45;;;0.00;99.90;;;;;;4992462;28;20245;-69
2021/12/22 13:40:35;;;;;;;28.02;15.45;;;0.00;99.90;;;;;;4989464;28;20225;-68
2021/12/22 13:43:02;;;;;;;16.63;9.90;;;0.10;99.90;;;;;;4989921;28;20288;-68
2021/12/22 13:45:28;;;;;;;17.83;11.20;;;0.10;99.90;;;;;;4988113;28;20263;-67
2021/12/22 13:47:56;;;;;;;17.20;10.73;;;0.10;99.90;;;;;;4987235;28;20231;-69
2021/12/22 13:50:23;;;;;;;22.08;12.90;;;0.10;99.90;;;;;;4994830;28;20210;-69
2021/12/22 13:52:50;;;;;;;18.27;11.73;;;0.10;99.90;;;;;;4993719;28;20207;-69
2021/12/22 13:55:17;;;;;;;19.70;10.85;;;0.00;99.90;;;;;;4994789;28;20212;-68
2021/12/22 13:57:44;;;;;;;16.80;10.23;;;0.10;99.90;;;;;;4994742;28;20282;-67
2021/12/22 14:00:18;;;;;;;21.02;11.95;;;0.10;99.90;;;;;;4994068;28;20232;-67
2021/12/22 14:02:46;;;;;;;21.90;12.20;;;-0.10;99.90;;;;;;4994779;28;20299;-68
2021/12/22 14:05:19;;;;;;;22.80;12.48;;;0.00;99.90;;;;;;4994369;28;20208;-68
2021/12/22 14:07:46;;;;;;;17.75;11.00;;;-0.10;99.90;;;;;;4994206;28;20232;-67
2021/12/22 14:10:15;;;;;;;24.27;13.63;;;0.00;99.90;;;;;;4993832;28;20200;-68
2021/12/22 14:12:44;;;;;;;22.02;12.27;;;0.00;99.90;;;;;;4993994;28;20266;-67
2021/12/22 14:15:12;;;;;;;18.15;11.82;;;0.00;99.90;;;;;;4993993;28;20203;-68
2021/12/22 14:17:42;;;;;;;16.75;10.30;;;0.00;99.90;;;;;;4994084;28;20350;-68
2021/12/22 14:20:16;;;;;;;20.02;10.88;;;0.00;99.90;;;;;;4993776;28;20239;-68
2021/12/22 14:22:46;;;;;;;25.02;13.02;;;0.00;99.90;;;;;;4993407;28;20245;-69
2021/12/22 14:25:17;;;;;;;24.73;12.10;;;0.00;99.90;;;;;;4994024;28;20581;-68
2021/12/22 14:27:45;;;;;;;20.35;11.45;;;0.00;99.90;;;;;;4996518;28;20275;-69
2021/12/22 14:30:27;;;;;;;21.15;14.30;;;0.10;99.90;;;;;;4999024;28;20633;-69
2021/12/22 14:32:56;;;;;;;40.45;21.00;;;0.00;99.90;;;;;;5000745;28;20209;-70
2021/12/22 14:35:26;;;;;;;39.63;23.25;;;0.00;99.90;;;;;;4997672;28;20275;-69
2021/12/22 14:37:58;;;;;;;24.58;14.20;;;0.00;99.90;;;;;;5001661;28;20235;-69
2021/12/22 14:40:27;;;;;;;30.20;20.10;;;-0.10;99.90;;;;;;4991994;28;20232;-68
2021/12/22 14:43:03;;;;;;;30.27;19.17;;;0.00;99.90;;;;;;4991544;28;20294;-68
2021/12/22 14:45:33;;;;;;;34.17;17.65;;;-0.10;99.90;;;;;;4991230;28;20219;-68
2021/12/22 14:48:09;;;;;;;22.77;13.70;;;-0.10;99.90;;;;;;4980203;28;20294;-68
2021/12/22 14:50:39;;;;;;;18.35;11.77;;;-0.10;99.90;;;;;;4991375;28;20199;-68
2021/12/22 14:53:08;;;;;;;27.55;16.35;;;-0.10;99.90;;;;;;4990632;28;20216;-67
2021/12/22 14:55:44;;;;;;;32.90;19.13;;;-0.10;99.90;;;;;;4984448;28;20216;-69
2021/12/22 14:58:12;;;;;;;21.52;12.02;;;-0.10;99.90;;;;;;4992371;28;20713;-68
2021/12/22 15:00:41;;;;;;;19.58;11.85;;;-0.20;99.90;;;;;;4985876;28;20227;-67
2021/12/22 15:03:08;;;;;;;23.00;13.95;;;-0.30;99.90;;;;;;4993600;28;20215;-70
2021/12/22 15:05:35;;;;;;;21.75;14.82;;;-0.30;99.90;;;;;;4994870;28;20305;-68
2021/12/22 15:08:04;;;;;;;18.85;11.70;;;-0.30;99.90;;;;;;4993034;28;20224;-70
2021/12/22 15:10:30;;;;;;;23.50;13.05;;;-0.30;99.90;;;;;;4995161;28;20809;-68
2021/12/22 15:12:57;;;;;;;19.73;11.15;;;-0.30;99.90;;;;;;4987674;28;20204;-68
2021/12/22 15:15:24;;;;;;;17.63;10.45;;;-0.30;99.90;;;;;;4983878;28;20204;-69
2021/12/22 15:17:51;;;;;;;20.20;11.43;;;-0.40;99.90;;;;;;4989064;28;20237;-70
2021/12/22 15:20:18;;;;;;;17.70;11.40;;;-0.50;99.90;;;;;;4992663;28;20259;-68
2021/12/22 15:22:45;;;;;;;25.83;13.20;;;-0.50;99.90;;;;;;4995796;28;20294;-67
2021/12/22 15:25:14;;;;;;;32.33;17.50;;;-0.60;99.90;;;;;;4993372;28;20207;-66
2021/12/22 15:27:41;;;;;;;24.33;13.85;;;-0.60;99.90;;;;;;4992916;28;20232;-67
2021/12/22 15:30:09;;;;;;;22.23;12.45;;;-0.50;99.90;;;;;;4992699;28;20656;-68
2021/12/22 15:32:36;;;;;;;24.63;13.02;;;-0.50;99.90;;;;;;4985100;28;20216;-67
2021/12/22 15:35:03;;;;;;;20.83;11.48;;;-0.50;99.90;;;;;;4981006;28;20745;-67
2021/12/22 15:37:30;;;;;;;19.95;12.65;;;-0.50;99.90;;;;;;4992705;28;20314;-67
2021/12/22 15:39:57;;;;;;;20.65;12.52;;;-0.50;99.90;;;;;;4990970;28;20592;-68
2021/12/22 15:42:25;;;;;;;24.10;12.43;;;-0.40;99.90;;;;;;4992860;28;20204;-67
2021/12/22 15:44:53;;;;;;;23.50;12.32;;;-0.40;99.90;;;;;;4991198;28;20229;-68
2021/12/22 15:47:21;;;;;;;20.75;10.90;;;-0.40;99.90;;;;;;4984446;28;20685;-67
2021/12/22 15:49:48;;;;;;;27.73;13.52;;;-0.40;99.90;;;;;;4990797;28;20203;-68
2021/12/22 15:52:16;;;;;;;22.00;11.50;;;-0.50;99.90;;;;;;4992661;28;20216;-69
2021/12/22 15:54:43;;;;;;;19.92;10.32;;;-0.50;99.90;;;;;;4991247;28;20208;-67
2021/12/22 15:57:10;;;;;;;16.27;10.52;;;-0.50;99.90;;;;;;4990336;28;20223;-67
2021/12/22 15:59:38;;;;;;;12.27;7.10;;;-0.60;99.90;;;;;;4984650;28;20639;-67
2021/12/22 16:02:05;;;;;;;8.30;4.00;;;-0.70;99.90;;;;;;4993246;28;20566;-68
2021/12/22 16:04:32;;;;;;;12.35;7.25;;;-0.90;99.90;;;;;;4991101;28;20238;-68
2021/12/22 16:06:58;;;;;;;21.02;12.00;;;-0.90;99.90;;;;;;4976725;28;20298;-67
2021/12/22 16:09:25;;;;;;;23.10;12.52;;;-0.90;99.90;;;;;;4979882;28;20204;-67
2021/12/22 16:11:52;;;;;;;23.60;12.15;;;-0.80;99.90;;;;;;4972739;28;20223;-68
2021/12/22 16:14:18;;;;;;;24.52;12.48;;;-0.80;99.90;;;;;;4973091;28;20208;-68
2021/12/22 16:16:46;;;;;;;23.15;12.48;;;-0.80;99.90;;;;;;4992309;28;20243;-69
2021/12/22 16:19:13;;;;;;;21.92;10.70;;;-0.90;99.90;;;;;;4978869;28;20424;-68
2021/12/22 16:21:40;;;;;;;18.70;10.25;;;-0.90;99.90;;;;;;4972172;28;20646;-68
2021/12/22 16:24:07;;;;;;;17.75;10.63;;;-0.90;99.90;;;;;;4976284;28;20203;-68
2021/12/22 16:26:35;;;;;;;18.40;11.27;;;-0.90;99.90;;;;;;4976631;28;20227;-70
2021/12/22 16:29:02;;;;;;;21.08;11.48;;;-0.90;99.90;;;;;;4984740;28;20329;-68
2021/12/22 16:31:29;;;;;;;17.80;10.38;;;-0.90;99.90;;;;;;4980392;28;20763;-69
2021/12/22 16:33:57;;;;;;;9.40;6.97;;;-0.80;99.90;;;;;;4985689;28;20216;-69
2021/12/22 16:36:24;;;;;;;14.40;9.27;;;-0.80;99.90;;;;;;4984350;28;20318;-69
2021/12/22 16:38:51;;;;;;;12.70;9.13;;;-0.90;99.90;;;;;;4977604;28;20204;-69
2021/12/22 16:41:18;;;;;;;20.20;10.07;;;-0.90;99.90;;;;;;4984777;28;20600;-68
2021/12/22 16:43:45;;;;;;;22.05;11.73;;;-1.00;99.90;;;;;;4989775;28;20593;-68
2021/12/22 16:46:11;;;;;;;12.15;8.38;;;-1.00;99.90;;;;;;4990357;28;20282;-69
2021/12/22 16:48:38;;;;;;;16.85;10.82;;;-1.00;99.90;;;;;;4988507;28;20204;-69
2021/12/22 16:51:06;;;;;;;14.85;9.25;;;-1.10;99.90;;;;;;4983343;28;20231;-68
2021/12/22 16:53:33;;;;;;;17.10;9.77;;;-1.10;99.90;;;;;;4983428;28;20208;-69
2021/12/22 16:56:02;;;;;;;13.43;7.72;;;-1.10;99.90;;;;;;4990628;28;20204;-69
2021/12/22 16:58:28;;;;;;;20.38;11.23;;;-1.00;99.90;;;;;;4992718;28;20219;-67
2021/12/22 17:00:55;;;;;;;19.90;12.20;;;-1.00;99.90;;;;;;4990077;28;20298;-67
2021/12/22 17:03:22;;;;;;;22.17;13.32;;;-0.90;99.90;;;;;;4984532;28;20213;-68
2021/12/22 17:05:49;;;;;;;17.55;11.25;;;-0.90;99.90;;;;;;4980339;28;20201;-69
2021/12/22 17:08:17;;;;;;;34.40;16.75;;;-0.90;99.90;;;;;;4988488;28;20314;-69
2021/12/22 17:10:45;;;;;;;21.85;11.55;;;-0.90;99.90;;;;;;4986761;28;20196;-69
2021/12/22 17:13:14;;;;;;;34.50;19.45;;;-0.90;99.90;;;;;;4985840;28;20270;-69
2021/12/22 17:15:41;;;;;;;28.10;13.75;;;-0.80;99.90;;;;;;4987231;28;20248;-68
2021/12/22 17:18:08;;;;;;;36.35;16.80;;;-0.80;99.90;;;;;;4986528;28;20712;-69
2021/12/22 17:20:39;;;;;;;25.98;12.75;;;-0.90;99.90;;;;;;4984027;28;20235;-68
2021/12/22 17:23:06;;;;;;;24.45;12.57;;;-0.90;99.90;;;;;;4987968;28;20243;-69
2021/12/22 17:25:36;;;;;;;30.08;15.30;;;-0.90;99.90;;;;;;4984286;28;20204;-69
2021/12/22 17:28:03;;;;;;;17.02;9.07;;;-0.90;99.90;;;;;;4989280;28;20695;-69
2021/12/22 17:30:30;;;;;;;23.85;12.35;;;-0.90;99.90;;;;;;4981728;28;20223;-68
2021/12/22 17:32:59;;;;;;;44.42;19.27;;;-1.00;99.90;;;;;;4987413;28;20266;-69
2021/12/22 17:35:26;;;;;;;26.50;13.60;;;-1.00;99.90;;;;;;4981773;28;20223;-69
2021/12/22 17:37:53;;;;;;;12.90;8.88;;;-1.00;99.90;;;;;;4990191;28;20335;-68
2021/12/22 17:40:22;;;;;;;9.82;7.28;;;-1.10;99.90;;;;;;4978981;28;20224;-70
2021/12/22 17:42:50;;;;;;;24.50;11.93;;;-1.20;99.90;;;;;;4989010;28;20586;-68
2021/12/22 17:45:20;;;;;;;21.00;11.98;;;-1.10;99.90;;;;;;4973316;28;20724;-69
2021/12/22 17:47:47;;;;;;;26.75;12.48;;;-1.10;99.90;;;;;;4982401;28;20224;-69
2021/12/22 17:50:14;;;;;;;29.40;14.52;;;-1.20;99.90;;;;;;4988997;28;20204;-68
2021/12/22 17:52:42;;;;;;;13.40;7.53;;;-1.10;99.90;;;;;;4981696;28;20571;-69
2021/12/22 17:55:10;;;;;;;18.52;10.30;;;-1.10;99.90;;;;;;4972071;28;20266;-70
2021/12/22 17:57:37;;;;;;;9.65;5.88;;;-1.20;99.90;;;;;;4988535;28;20235;-69